Time;durP1;ratioP1;P1;durP2;ratioP2;P2;SDS_P1;SDS_P2;PMS_P1;PMS_P2;Temp;Humidity;BMP_temperature;BMP_pressure;BME280_temperature;BME280_humidity;BME280_pressure;Samples;Min_cycle;Max_cycle;Signal;HPM_P1;HPM_P2
2021/10/13 00:02:58;;;;;;;14.68;10.45;;;;;;;22.40;47.57;94523.91;5309139;22;20055;-59
2021/10/13 00:05:23;;;;;;;14.30;10.57;;;;;;;22.40;47.68;94530.09;4967012;28;20031;-59
2021/10/13 00:07:49;;;;;;;15.02;10.93;;;;;;;22.40;47.73;94530.09;4968137;28;20033;-60
2021/10/13 00:10:14;;;;;;;14.52;10.43;;;;;;;22.39;47.62;94517.75;4985237;28;20084;-61
2021/10/13 00:12:40;;;;;;;17.55;11.43;;;;;;;22.37;47.69;94514.78;4985506;28;20073;-60
2021/10/13 00:15:08;;;;;;;15.23;10.98;;;;;;;22.35;47.93;94509.16;4985260;28;20056;-59
2021/10/13 00:17:33;;;;;;;15.35;10.90;;;;;;;22.35;47.68;94506.41;4985102;28;20041;-61
2021/10/13 00:19:59;;;;;;;15.02;10.55;;;;;;;22.33;47.73;94508.94;4967891;28;20424;-60
2021/10/13 00:22:24;;;;;;;13.55;9.80;;;;;;;22.32;47.69;94512.88;4985267;28;20034;-60
2021/10/13 00:24:50;;;;;;;15.57;10.45;;;;;;;22.31;47.90;94511.41;4985295;28;20037;-60
2021/10/13 00:27:15;;;;;;;13.15;9.93;;;;;;;22.29;48.07;94503.03;4984809;28;20041;-61
2021/10/13 00:29:41;;;;;;;13.43;10.15;;;;;;;22.27;47.92;94500.09;4967731;28;20019;-60
2021/10/13 00:32:06;;;;;;;15.02;10.75;;;;;;;22.27;48.00;94502.81;4985371;28;20037;-61
2021/10/13 00:34:32;;;;;;;13.77;10.18;;;;;;;22.26;48.17;94493.19;4985194;28;20026;-61
2021/10/13 00:36:58;;;;;;;14.45;10.38;;;;;;;22.25;47.98;94491.72;4985108;28;20053;-60
2021/10/13 00:39:23;;;;;;;15.05;10.63;;;;;;;22.23;48.09;94488.03;4985168;28;20034;-60
2021/10/13 00:41:49;;;;;;;13.43;9.52;;;;;;;22.22;48.20;94492.00;4968055;28;20034;-60
2021/10/13 00:44:15;;;;;;;14.35;9.88;;;;;;;22.21;48.19;94485.84;4984973;28;20042;-60
2021/10/13 00:46:40;;;;;;;17.20;10.88;;;;;;;22.21;48.15;94485.84;4967716;28;20041;-60
2021/10/13 00:49:06;;;;;;;13.45;10.43;;;;;;;22.19;48.22;94488.28;4986375;28;20649;-60
2021/10/13 00:51:31;;;;;;;13.80;9.88;;;;;;;22.16;48.19;94477.72;4988856;28;20031;-60
2021/10/13 00:53:57;;;;;;;15.20;10.98;;;;;;;22.19;48.45;94476.69;4970958;28;20030;-60
2021/10/13 00:56:22;;;;;;;14.50;9.68;;;;;;;22.15;48.25;94477.00;4954941;28;20030;-60
2021/10/13 00:58:48;;;;;;;14.27;10.70;;;;;;;22.16;48.13;94475.00;4988490;28;20034;-60
2021/10/13 01:01:20;;;;;;;16.25;10.90;;;;;;;22.12;48.26;94471.81;4988131;28;20049;-60
2021/10/13 01:04:27;;;;;;;14.13;9.65;;;;;;;22.13;48.31;94479.47;4987060;28;20065;-60
2021/10/13 01:07:12;;;;;;;14.73;10.20;;;;;;;22.12;48.20;94477.25;4987955;28;20575;-60
2021/10/13 01:09:46;;;;;;;15.18;10.05;;;;;;;22.11;48.43;94481.97;4970589;28;20033;-60
2021/10/13 01:12:27;;;;;;;13.63;9.80;;;;;;;22.10;48.30;94479.75;4988076;28;20038;-60
2021/10/13 01:15:11;;;;;;;15.80;10.43;;;;;;;22.09;48.32;94476.31;4988088;28;20096;-60
2021/10/13 01:17:40;;;;;;;13.75;10.38;;;;;;;22.08;48.39;94477.56;4970273;28;20053;-60
2021/10/13 01:20:38;;;;;;;14.80;10.05;;;;;;;22.07;48.59;94476.09;4971280;28;20026;-60
2021/10/13 01:23:30;;;;;;;15.93;10.70;;;;;;;22.08;48.52;94482.28;4889193;28;20521;-59
2021/10/13 01:26:11;;;;;;;14.30;10.32;;;;;;;22.05;48.33;94481.31;4968368;28;20041;-59
2021/10/13 01:28:38;;;;;;;12.80;9.32;;;;;;;22.01;48.40;94472.69;4968361;28;20085;-60
2021/10/13 01:31:04;;;;;;;13.65;10.25;;;;;;;22.03;48.46;94481.09;4967200;28;20027;-59
2021/10/13 01:33:36;;;;;;;14.00;9.57;;;;;;;22.02;48.44;94474.19;4951095;28;20119;-61
2021/10/13 01:36:06;;;;;;;12.60;9.80;;;;;;;22.02;48.51;94468.75;4968173;28;20034;-60
2021/10/13 01:38:33;;;;;;;12.80;9.32;;;;;;;22.00;48.40;94471.25;4966939;28;20089;-60
2021/10/13 01:41:00;;;;;;;13.85;9.75;;;;;;;21.99;48.52;94480.63;4950637;28;20496;-61
2021/10/13 01:43:25;;;;;;;13.32;9.88;;;;;;;21.95;48.70;94463.16;4966961;28;20035;-61
2021/10/13 01:45:51;;;;;;;12.88;9.57;;;;;;;21.98;48.52;94473.00;4967050;28;20041;-60
2021/10/13 01:48:17;;;;;;;13.38;9.48;;;;;;;21.96;48.49;94476.22;4968061;28;20673;-60
2021/10/13 01:50:44;;;;;;;13.70;9.55;;;;;;;21.97;48.70;94471.50;4950669;28;20453;-60
2021/10/13 01:53:10;;;;;;;14.40;10.02;;;;;;;21.93;48.76;94471.81;4950922;28;20421;-60
2021/10/13 01:55:35;;;;;;;13.73;9.25;;;;;;;21.96;48.70;94473.50;4950008;28;20027;-61
2021/10/13 01:58:01;;;;;;;13.23;9.85;;;;;;;21.95;48.68;94463.88;4978813;28;20684;-60
2021/10/13 02:00:26;;;;;;;13.13;9.38;;;;;;;21.95;48.69;94469.31;4969062;28;20030;-61
2021/10/13 02:02:52;;;;;;;13.43;9.43;;;;;;;21.94;48.44;94478.72;4986031;28;20141;-60
2021/10/13 02:05:17;;;;;;;13.60;9.30;;;;;;;21.93;49.13;94482.69;4969322;28;20416;-60
2021/10/13 02:07:43;;;;;;;13.05;9.77;;;;;;;21.93;48.79;94477.25;4969593;28;20026;-61
2021/10/13 02:10:10;;;;;;;13.02;8.90;;;;;;;21.92;48.75;94474.31;4986158;28;20029;-60
2021/10/13 02:12:37;;;;;;;12.63;9.32;;;;;;;21.91;48.87;94489.16;4985500;28;20475;-61
2021/10/13 02:15:03;;;;;;;13.00;8.90;;;;;;;21.91;48.78;94489.88;4985766;28;20022;-61
2021/10/13 02:17:29;;;;;;;13.30;9.38;;;;;;;21.86;48.83;94481.81;4969113;28;20038;-60
2021/10/13 02:19:54;;;;;;;12.57;9.68;;;;;;;21.91;48.73;94489.16;4969214;28;20042;-60
2021/10/13 02:22:19;;;;;;;13.35;9.70;;;;;;;21.86;48.72;94476.38;4969352;28;20037;-60
2021/10/13 02:24:47;;;;;;;11.88;8.55;;;;;;;21.84;48.92;94478.84;4985550;28;20463;-61
2021/10/13 02:27:23;;;;;;;13.68;9.80;;;;;;;21.89;48.78;94486.22;4984950;28;20033;-61
2021/10/13 02:29:49;;;;;;;11.73;8.70;;;;;;;21.89;48.93;94488.94;4969432;28;20559;-60
2021/10/13 02:32:14;;;;;;;12.55;8.73;;;;;;;21.87;48.57;94477.81;4985403;28;20034;-60
2021/10/13 02:34:40;;;;;;;12.05;8.98;;;;;;;21.87;48.86;94480.53;4986401;28;20113;-61
2021/10/13 02:37:05;;;;;;;12.60;9.13;;;;;;;21.86;48.81;94481.81;4984973;28;20091;-61
2021/10/13 02:39:31;;;;;;;11.98;8.45;;;;;;;21.85;48.88;94491.91;4986614;28;20041;-61
2021/10/13 02:41:56;;;;;;;12.23;8.98;;;;;;;21.82;48.92;94478.63;4986179;28;20041;-61
2021/10/13 02:44:22;;;;;;;11.35;8.32;;;;;;;21.84;48.79;94495.16;4985586;28;20122;-61
2021/10/13 02:46:48;;;;;;;12.57;8.65;;;;;;;21.83;48.83;94493.69;4986291;28;20042;-61
2021/10/13 02:49:18;;;;;;;12.38;8.68;;;;;;;21.81;48.93;94491.50;4985210;28;20744;-61
2021/10/13 02:52:09;;;;;;;10.85;8.35;;;;;;;21.83;48.81;94493.69;4984823;28;20061;-61
2021/10/13 02:55:00;;;;;;;12.40;8.55;;;;;;;21.81;48.92;94507.78;4985740;28;20030;-61
2021/10/13 02:57:32;;;;;;;12.02;8.63;;;;;;;21.82;48.78;94503.09;4985657;28;20072;-60
2021/10/13 02:59:58;;;;;;;11.95;8.57;;;;;;;21.79;48.88;94507.56;4985175;28;20034;-61
2021/10/13 03:02:25;;;;;;;13.05;8.65;;;;;;;21.79;48.94;94514.97;4985873;28;20698;-60
2021/10/13 03:04:56;;;;;;;11.63;8.65;;;;;;;21.78;48.74;94519.69;4969037;28;20022;-61
2021/10/13 03:07:24;;;;;;;11.63;8.23;;;;;;;21.73;48.78;94512.31;4968278;28;20069;-60
2021/10/13 03:10:00;;;;;;;10.50;8.05;;;;;;;21.77;49.03;94528.34;4968703;28;20052;-60
2021/10/13 03:12:27;;;;;;;11.50;8.23;;;;;;;21.77;49.05;94539.94;4984588;28;20034;-60
2021/10/13 03:14:54;;;;;;;10.68;8.15;;;;;;;21.76;48.90;94537.75;4952624;28;20115;-60
2021/10/13 03:17:20;;;;;;;12.27;8.70;;;;;;;21.73;49.05;94522.44;4968306;28;20117;-61
2021/10/13 03:19:45;;;;;;;9.73;7.70;;;;;;;21.71;49.04;94530.38;4968473;28;20558;-61
2021/10/13 03:22:11;;;;;;;11.20;7.88;;;;;;;21.73;48.84;94536.03;4952447;28;20034;-60
2021/10/13 03:24:36;;;;;;;11.95;8.07;;;;;;;21.71;48.99;94533.09;4968197;28;20201;-61
2021/10/13 03:27:02;;;;;;;10.50;7.82;;;;;;;21.74;48.99;94534.81;4985529;28;20031;-60
2021/10/13 03:29:27;;;;;;;11.60;8.02;;;;;;;21.73;48.84;94531.31;4985863;28;20071;-61
2021/10/13 03:31:52;;;;;;;12.02;8.50;;;;;;;21.72;48.96;94531.84;4984171;28;20030;-60
2021/10/13 03:34:18;;;;;;;10.93;7.75;;;;;;;21.72;49.02;94538.03;4985564;28;20037;-60
2021/10/13 03:36:47;;;;;;;9.30;7.18;;;;;;;21.72;49.06;94542.72;4985579;28;20033;-61
2021/10/13 03:39:13;;;;;;;11.05;7.90;;;;;;;21.71;48.95;94538.53;4968071;28;20034;-60
2021/10/13 03:41:39;;;;;;;10.07;7.93;;;;;;;21.71;48.96;94535.81;4985277;28;20066;-61
2021/10/13 03:44:05;;;;;;;10.10;7.68;;;;;;;21.71;48.88;94541.25;4968014;28;20425;-61
2021/10/13 03:46:30;;;;;;;10.82;8.05;;;;;;;21.70;48.97;94539.78;4985667;28;20084;-60
2021/10/13 03:48:56;;;;;;;12.07;8.63;;;;;;;21.69;48.93;94538.31;4985817;28;20026;-61
2021/10/13 03:51:21;;;;;;;11.40;8.05;;;;;;;21.69;49.16;94532.88;4985805;28;20137;-61
2021/10/13 03:53:46;;;;;;;10.60;8.07;;;;;;;21.69;48.98;94538.31;4985275;28;20026;-60
2021/10/13 03:56:12;;;;;;;10.85;7.93;;;;;;;21.68;49.14;94547.72;4984716;28;20037;-61
2021/10/13 03:58:38;;;;;;;11.13;7.60;;;;;;;21.67;48.95;94546.22;4984841;28;20037;-60
2021/10/13 04:01:03;;;;;;;10.45;7.85;;;;;;;21.66;48.97;94542.06;4985421;28;20027;-60
2021/10/13 04:03:29;;;;;;;10.13;7.53;;;;;;;21.66;49.01;94550.22;4985268;28;20128;-60
2021/10/13 04:05:54;;;;;;;11.40;8.00;;;;;;;21.66;49.03;94544.78;4985378;28;20492;-61
2021/10/13 04:08:20;;;;;;;11.02;8.10;;;;;;;21.63;49.20;94551.22;4985133;28;20484;-60
2021/10/13 04:10:45;;;;;;;10.27;7.57;;;;;;;21.65;48.74;94559.59;4984960;28;20477;-60
2021/10/13 04:13:10;;;;;;;11.45;7.93;;;;;;;21.65;49.19;94556.88;4985399;28;20044;-61
2021/10/13 04:15:36;;;;;;;10.93;8.13;;;;;;;21.65;48.98;94554.16;4985230;28;20045;-60
2021/10/13 04:18:02;;;;;;;9.90;7.43;;;;;;;21.64;49.07;94552.69;4984366;28;20424;-60
2021/10/13 04:20:27;;;;;;;10.90;7.78;;;;;;;21.63;49.14;94556.66;4967778;28;20035;-60
2021/10/13 04:22:53;;;;;;;10.00;7.75;;;;;;;21.63;49.13;94556.66;4984154;28;20033;-60
2021/10/13 04:25:18;;;;;;;10.63;7.40;;;;;;;21.57;49.24;94547.81;4988444;28;20054;-61
2021/10/13 04:27:44;;;;;;;9.95;7.72;;;;;;;21.62;49.13;94552.47;4988628;28;20088;-60
2021/10/13 04:30:09;;;;;;;11.38;8.57;;;;;;;21.61;49.12;94559.13;4989108;28;20037;-60
2021/10/13 04:32:35;;;;;;;9.60;7.03;;;;;;;21.59;49.31;94556.19;4988887;28;20037;-60
2021/10/13 04:35:00;;;;;;;10.65;7.80;;;;;;;21.61;48.91;94557.16;4988799;28;20041;-60
2021/10/13 04:37:26;;;;;;;11.02;7.47;;;;;;;21.60;49.16;94563.09;4988910;28;20062;-60
2021/10/13 04:39:51;;;;;;;10.60;8.10;;;;;;;21.58;49.06;94566.34;4987766;28;20034;-60
2021/10/13 04:42:16;;;;;;;9.07;7.28;;;;;;;21.61;48.86;94580.88;4969366;28;20043;-61
2021/10/13 04:44:42;;;;;;;9.93;7.43;;;;;;;21.59;49.02;94575.94;4978559;28;20397;-61
2021/10/13 04:47:07;;;;;;;10.45;7.50;;;;;;;21.59;48.95;94583.38;4988548;28;20031;-62
2021/10/13 04:49:33;;;;;;;9.27;7.05;;;;;;;21.55;49.13;94583.66;4988454;28;20038;-61
2021/10/13 04:51:58;;;;;;;10.20;7.65;;;;;;;21.57;49.22;94600.16;4988411;28;20030;-61
2021/10/13 04:54:24;;;;;;;9.07;7.40;;;;;;;21.57;49.49;94596.72;4988196;28;20489;-61
2021/10/13 04:56:49;;;;;;;9.70;6.93;;;;;;;21.57;49.31;94602.16;4986315;28;20041;-61
2021/10/13 04:59:15;;;;;;;10.40;7.28;;;;;;;21.58;49.51;94604.38;4987166;28;20018;-62
2021/10/13 05:01:41;;;;;;;9.32;7.13;;;;;;;21.58;49.25;94603.63;4987613;28;20034;-62
2021/10/13 05:04:06;;;;;;;8.85;6.75;;;;;;;21.58;49.54;94609.06;4987260;28;20048;-61
2021/10/13 05:06:31;;;;;;;9.40;6.85;;;;;;;21.58;49.39;94617.19;4987866;28;20014;-61
2021/10/13 05:08:57;;;;;;;9.23;7.07;;;;;;;21.59;49.52;94622.13;4987231;28;20014;-61
2021/10/13 05:11:23;;;;;;;8.95;6.85;;;;;;;21.59;49.50;94622.13;4987551;28;20021;-61
2021/10/13 05:13:48;;;;;;;9.27;7.20;;;;;;;21.60;49.48;94628.31;4958663;28;20489;-62
2021/10/13 05:16:14;;;;;;;10.38;7.25;;;;;;;21.61;49.46;94632.50;4970932;28;20658;-61
2021/10/13 05:18:39;;;;;;;8.93;6.68;;;;;;;21.61;49.34;94627.06;4971620;28;20035;-61
2021/10/13 05:21:04;;;;;;;8.68;6.60;;;;;;;21.63;49.72;94633.47;4972703;28;20031;-62
2021/10/13 05:23:30;;;;;;;9.00;6.57;;;;;;;21.64;49.63;94634.94;4969108;28;20022;-62
2021/10/13 05:25:55;;;;;;;9.88;7.20;;;;;;;21.63;50.01;94630.03;4980847;28;20040;-62
2021/10/13 05:28:21;;;;;;;8.68;6.63;;;;;;;21.69;50.17;94641.59;4977401;28;20432;-63
2021/10/13 05:30:46;;;;;;;7.97;6.32;;;;;;;21.70;52.53;94640.31;4986735;28;20022;-62
2021/10/13 05:33:12;;;;;;;9.00;6.45;;;;;;;21.75;52.01;94639.53;4986617;28;20038;-63
2021/10/13 05:35:37;;;;;;;9.63;6.35;;;;;;;21.82;53.84;94644.41;4985416;28;20050;-62
2021/10/13 05:38:03;;;;;;;9.65;6.28;;;;;;;21.91;52.49;94646.81;4975993;28;20397;-62
2021/10/13 05:40:28;;;;;;;8.90;6.32;;;;;;;21.99;53.61;94649.19;4986928;28;20648;-62
2021/10/13 05:42:54;;;;;;;8.55;6.43;;;;;;;22.07;51.83;94639.22;4967364;28;20030;-62
2021/10/13 05:45:19;;;;;;;11.30;5.97;;;;;;;22.15;50.63;94645.59;4985551;28;20014;-62
2021/10/13 05:47:45;;;;;;;8.57;5.70;;;;;;;22.25;50.32;94649.47;4982444;28;20126;-60
2021/10/13 05:50:10;;;;;;;9.25;5.88;;;;;;;22.36;50.48;94648.59;4986775;28;20026;-61
2021/10/13 05:52:36;;;;;;;7.38;5.63;;;;;;;22.47;50.31;94649.22;4984623;28;20060;-61
2021/10/13 05:55:04;;;;;;;10.15;7.25;;;;;;;22.58;50.27;94649.09;4980227;28;20512;-61
2021/10/13 05:57:30;;;;;;;10.10;7.60;;;;;;;22.67;49.76;94640.59;4982501;28;20030;-61
2021/10/13 05:59:59;;;;;;;10.57;8.65;;;;;;;22.79;49.19;94658.25;4968484;28;20485;-62
2021/10/13 06:02:25;;;;;;;13.43;9.60;;;;;;;22.92;49.12;94662.53;4978657;28;20034;-64
2021/10/13 06:04:52;;;;;;;17.25;10.48;;;;;;;23.03;49.06;94662.44;4985005;28;20033;-61
2021/10/13 06:07:17;;;;;;;13.30;10.57;;;;;;;23.15;48.51;94661.03;4983314;28;20112;-61
2021/10/13 06:09:43;;;;;;;14.20;11.02;;;;;;;23.27;48.49;94658.88;4984785;28;20106;-61
2021/10/13 06:12:08;;;;;;;14.48;11.57;;;;;;;23.38;47.97;94659.47;4984344;28;20027;-62
2021/10/13 06:14:34;;;;;;;13.07;10.27;;;;;;;23.53;47.65;94662.47;4979609;28;20026;-65
2021/10/13 06:17:00;;;;;;;11.90;9.85;;;;;;;23.63;47.49;94668.97;4969670;28;20026;-65
2021/10/13 06:19:25;;;;;;;14.05;9.93;;;;;;;23.69;47.48;94666.94;4974214;28;20025;-65
2021/10/13 06:21:50;;;;;;;12.23;9.35;;;;;;;23.79;47.17;94676.94;4951385;28;20026;-65
2021/10/13 06:24:16;;;;;;;13.32;9.68;;;;;;;23.88;46.58;94680.03;4973168;28;20018;-65
2021/10/13 06:26:41;;;;;;;13.02;9.48;;;;;;;23.94;46.28;94683.38;4970338;28;20027;-66
2021/10/13 06:29:07;;;;;;;12.60;10.07;;;;;;;23.99;46.44;94679.84;4973806;28;20116;-65
2021/10/13 06:31:32;;;;;;;11.45;8.98;;;;;;;24.09;46.27;94689.06;4966516;28;20026;-65
2021/10/13 06:33:58;;;;;;;13.05;9.50;;;;;;;24.19;45.88;94687.44;4973415;28;20113;-66
2021/10/13 06:36:24;;;;;;;12.90;9.07;;;;;;;24.30;45.48;94687.22;4970691;28;20062;-66
2021/10/13 06:38:50;;;;;;;10.98;9.38;;;;;;;24.39;45.19;94690.31;4981239;28;20024;-67
2021/10/13 06:41:15;;;;;;;12.55;8.88;;;;;;;24.51;45.02;94682.66;4968055;28;20449;-67
2021/10/13 06:43:42;;;;;;;12.90;8.90;;;;;;;24.59;45.04;94680.78;4971554;28;20019;-67
2021/10/13 06:46:08;;;;;;;11.77;8.68;;;;;;;24.68;44.95;94688.53;4971177;28;20086;-63
2021/10/13 06:48:33;;;;;;;10.75;8.55;;;;;;;24.73;44.57;94695.91;4971121;28;20760;-63
2021/10/13 06:50:59;;;;;;;13.13;9.05;;;;;;;24.73;44.50;94695.91;4970306;28;20026;-62
2021/10/13 06:53:25;;;;;;;11.93;8.77;;;;;;;24.70;44.58;94691.50;4976534;28;20034;-60
2021/10/13 06:55:51;;;;;;;10.82;8.77;;;;;;;24.68;44.20;94680.34;4969753;28;20033;-61
2021/10/13 06:58:16;;;;;;;11.38;8.57;;;;;;;24.67;44.08;94681.63;4969272;28;20014;-61
2021/10/13 07:01:02;;;;;;;10.45;8.25;;;;;;;24.67;44.48;94678.88;4952235;28;20446;-61
2021/10/13 07:03:28;;;;;;;11.73;8.57;;;;;;;24.68;44.31;94688.53;4969828;28;20537;-61
2021/10/13 07:05:53;;;;;;;11.73;8.65;;;;;;;24.67;44.43;94692.53;4967590;28;20034;-62
2021/10/13 07:08:19;;;;;;;11.95;8.63;;;;;;;24.63;44.01;94689.38;4969125;28;20121;-62
2021/10/13 07:10:44;;;;;;;10.45;8.57;;;;;;;24.55;44.65;94686.53;4968399;28;20023;-62
2021/10/13 07:13:10;;;;;;;10.57;8.40;;;;;;;24.50;44.71;94686.66;4963266;28;20058;-62
2021/10/13 07:15:35;;;;;;;10.57;8.05;;;;;;;24.45;44.79;94684.75;4971722;28;20026;-62
2021/10/13 07:18:01;;;;;;;10.55;7.97;;;;;;;24.39;44.93;94690.31;4975374;28;20034;-62
2021/10/13 07:20:27;;;;;;;10.73;8.32;;;;;;;24.31;45.04;94688.69;4969302;28;20035;-62
2021/10/13 07:22:52;;;;;;;11.25;8.75;;;;;;;24.26;44.71;94692.28;4972380;28;20512;-62
2021/10/13 07:25:22;;;;;;;10.85;8.75;;;;;;;24.22;44.81;94680.91;4973508;28;20026;-62
2021/10/13 07:27:48;;;;;;;10.07;8.27;;;;;;;24.16;45.17;94693.94;4975632;28;20041;-62
2021/10/13 07:30:17;;;;;;;11.27;8.35;;;;;;;24.11;45.09;94685.81;4971064;28;20026;-62
2021/10/13 07:32:42;;;;;;;11.00;8.23;;;;;;;24.07;45.10;94691.59;4975933;28;20036;-62
2021/10/13 07:35:08;;;;;;;10.73;7.82;;;;;;;24.02;45.17;94695.16;4977002;28;20621;-62
2021/10/13 07:37:34;;;;;;;10.07;7.75;;;;;;;23.99;45.13;94685.28;4978036;28;20041;-62
2021/10/13 07:40:01;;;;;;;10.25;7.72;;;;;;;23.93;45.22;94681.91;4966088;28;20504;-63
2021/10/13 07:42:26;;;;;;;9.93;7.95;;;;;;;23.91;45.63;94689.88;4962650;28;20031;-62
2021/10/13 07:44:52;;;;;;;10.77;8.10;;;;;;;23.88;45.26;94690.94;4979692;28;20034;-62
2021/10/13 07:47:17;;;;;;;11.93;8.70;;;;;;;23.86;45.64;94689.25;4981144;28;20045;-62
2021/10/13 07:49:42;;;;;;;12.35;8.70;;;;;;;23.82;45.41;94694.25;4981961;28;20042;-63
2021/10/13 07:52:08;;;;;;;11.75;8.88;;;;;;;23.78;45.61;94685.63;4982445;28;20493;-61
2021/10/13 07:54:33;;;;;;;11.63;8.55;;;;;;;23.74;46.12;94679.75;4981532;28;20034;-63
2021/10/13 07:56:59;;;;;;;11.05;8.18;;;;;;;23.69;45.58;94688.75;4981644;28;20524;-62
2021/10/13 07:59:24;;;;;;;12.10;8.23;;;;;;;23.67;46.02;94691.25;4982807;28;20026;-62
2021/10/13 08:01:50;;;;;;;11.15;8.43;;;;;;;23.62;45.83;94689.34;4969345;28;20038;-62
2021/10/13 08:04:15;;;;;;;12.07;8.73;;;;;;;23.62;46.05;94689.34;4974302;28;20046;-62
2021/10/13 08:06:41;;;;;;;11.20;8.77;;;;;;;23.64;46.02;94700.47;4949994;28;20026;-60
2021/10/13 08:09:06;;;;;;;12.70;8.98;;;;;;;23.62;45.68;94702.97;4934425;28;20104;-62
2021/10/13 08:11:32;;;;;;;11.88;8.80;;;;;;;23.61;46.23;94707.66;4980800;28;20043;-62
2021/10/13 08:13:58;;;;;;;11.90;8.73;;;;;;;23.61;45.89;94710.38;4956103;28;20039;-62
2021/10/13 08:16:24;;;;;;;10.45;7.97;;;;;;;23.62;46.50;94708.41;4967551;28;20045;-68
2021/10/13 08:18:49;;;;;;;11.23;8.35;;;;;;;23.61;46.18;94715.13;4979971;28;20041;-62
2021/10/13 08:21:15;;;;;;;12.50;9.15;;;;;;;23.64;46.46;94714.09;4984144;28;20050;-64
2021/10/13 08:23:40;;;;;;;11.57;8.88;;;;;;;23.65;46.18;94704.69;4975515;28;20057;-63
2021/10/13 08:26:06;;;;;;;12.23;8.63;;;;;;;23.61;46.27;94704.22;4978606;28;20405;-62
2021/10/13 08:28:31;;;;;;;11.75;8.65;;;;;;;23.64;46.37;94709.38;4985254;28;20030;-62
2021/10/13 08:30:57;;;;;;;12.23;8.90;;;;;;;23.62;46.74;94706.41;4988416;28;20014;-61
2021/10/13 08:33:23;;;;;;;15.73;8.98;;;;;;;23.61;46.23;94704.22;4988820;28;20098;-61
2021/10/13 08:35:48;;;;;;;12.52;8.68;;;;;;;23.60;46.27;94702.72;4987227;28;20535;-61
2021/10/13 08:38:14;;;;;;;12.82;9.05;;;;;;;23.58;46.54;94699.78;4987572;28;20037;-61
2021/10/13 08:40:40;;;;;;;14.40;8.55;;;;;;;23.57;46.48;94690.13;4987201;28;20533;-60
2021/10/13 08:43:05;;;;;;;12.93;7.97;;;;;;;23.56;46.32;94696.84;4986772;28;20034;-62
2021/10/13 08:45:32;;;;;;;12.23;8.90;;;;;;;23.56;46.62;94696.84;4988174;28;20034;-61
2021/10/13 08:47:57;;;;;;;13.02;8.68;;;;;;;23.56;45.97;94705.03;4988113;28;20117;-61
2021/10/13 08:50:23;;;;;;;12.60;8.35;;;;;;;23.55;46.05;94706.28;4970920;28;20042;-61
2021/10/13 08:52:50;;;;;;;11.93;8.23;;;;;;;23.55;46.11;94711.72;4987800;28;20489;-61
2021/10/13 08:55:16;;;;;;;13.15;9.00;;;;;;;23.54;46.08;94710.25;4970699;28;20109;-61
2021/10/13 08:57:41;;;;;;;12.93;8.85;;;;;;;23.51;46.13;94705.84;4970069;28;20185;-62
2021/10/13 09:00:07;;;;;;;12.43;8.80;;;;;;;23.54;45.99;94715.69;4987870;28;20031;-62
2021/10/13 09:02:42;;;;;;;11.70;7.95;;;;;;;23.55;46.20;94723.34;4979956;28;20039;-62
2021/10/13 09:05:12;;;;;;;13.27;8.95;;;;;;;23.57;45.86;94731.03;4983323;28;20030;-61
2021/10/13 09:07:38;;;;;;;12.38;8.45;;;;;;;23.59;45.83;94717.63;4984161;28;20037;-62
2021/10/13 09:10:04;;;;;;;13.57;9.98;;;;;;;23.61;46.17;94706.94;4981883;28;20666;-60
2021/10/13 09:12:34;;;;;;;18.60;12.13;;;;;;;23.62;45.35;94711.16;4982051;28;20030;-62
2021/10/13 09:15:07;;;;;;;20.35;12.00;;;;;;;23.64;45.15;94703.19;4981276;28;20046;-60
2021/10/13 09:17:52;;;;;;;24.20;13.05;;;;;;;23.70;44.71;94714.75;4982920;28;20049;-61
2021/10/13 09:20:18;;;;;;;29.20;16.88;;;;;;;-140.79;100.00;63287.88;4977435;28;20145;-63
2021/10/13 09:23:20;;;;;;;30.92;20.75;;;;;;;-140.79;100.00;63287.88;4987022;28;20338;-61
2021/10/13 09:26:04;;;;;;;29.58;19.77;;;;;;;-140.79;100.00;63287.88;4972763;28;20140;-60
2021/10/13 09:28:29;;;;;;;35.38;23.45;;;;;;;-140.79;100.00;63287.88;4987183;28;20593;-60
2021/10/13 09:30:55;;;;;;;40.63;25.63;;;;;;;-140.79;100.00;63287.88;4981861;28;20075;-60
2021/10/13 09:33:20;;;;;;;36.83;25.33;;;;;;;-140.79;100.00;63287.88;4986681;28;20014;-61
2021/10/13 09:35:51;;;;;;;44.35;30.00;;;;;;;-140.79;100.00;63287.88;4978402;28;20026;-60
2021/10/13 09:38:18;;;;;;;45.50;29.48;;;;;;;-140.79;100.00;63287.88;4967156;28;20112;-61
2021/10/13 09:40:44;;;;;;;44.30;30.85;;;;;;;-140.79;100.00;63287.88;4974664;28;20239;-61
2021/10/13 09:43:32;;;;;;;42.20;31.48;;;;;;;-140.79;100.00;63287.88;4984226;28;20077;-60
2021/10/13 09:46:20;;;;;;;45.00;30.98;;;;;;;-140.79;100.00;63287.88;4980727;28;20555;-61
2021/10/13 09:48:58;;;;;;;44.25;30.67;;;;;;;-140.79;100.00;63287.88;4979550;28;20034;-60
2021/10/13 09:51:23;;;;;;;40.67;29.38;;;;;;;-140.79;100.00;63287.88;4958075;28;20053;-60
2021/10/13 09:53:52;;;;;;;46.08;29.48;;;;;;;-140.79;100.00;63287.88;4979339;28;20662;-60
2021/10/13 09:56:35;;;;;;;44.72;29.63;;;;;;;-140.79;100.00;63287.88;4953266;28;20034;-61
2021/10/13 09:59:13;;;;;;;43.22;29.35;;;;;;;-140.79;100.00;63287.88;4951559;28;20521;-61
2021/10/13 10:01:40;;;;;;;40.85;27.55;;;;;;;-140.79;100.00;63287.88;4973638;28;20133;-61
2021/10/13 10:04:06;;;;;;;38.28;26.30;;;;;;;-140.79;100.00;63287.88;4964515;28;20480;-61
2021/10/13 10:06:33;;;;;;;36.20;26.48;;;;;;;-140.79;100.00;63287.88;4957755;28;20023;-61
2021/10/13 10:08:59;;;;;;;35.42;25.58;;;;;;;-140.79;100.00;63287.88;4959946;28;20081;-63
2021/10/13 10:11:31;;;;;;;37.90;25.20;;;;;;;-140.79;100.00;63287.88;4958472;28;20489;-62
2021/10/13 10:14:02;;;;;;;33.30;24.92;;;;;;;-140.79;100.00;63287.88;4952361;28;20041;-64
2021/10/13 10:16:37;;;;;;;38.38;25.88;;;;;;;-140.79;100.00;63287.88;4971433;28;20111;-63
2021/10/13 10:19:27;;;;;;;32.47;24.05;;;;;;;-140.79;100.00;63287.88;4953925;28;20086;-64
2021/10/13 10:21:54;;;;;;;37.70;24.83;;;;;;;-140.79;100.00;63287.88;4953810;28;20094;-63
2021/10/13 10:24:23;;;;;;;32.95;22.95;;;;;;;-140.79;100.00;63287.88;4945925;28;20114;-64
2021/10/13 10:26:48;;;;;;;32.22;24.40;;;;;;;-140.79;100.00;63287.88;4946628;28;20031;-65
2021/10/13 10:29:14;;;;;;;33.25;22.88;;;;;;;-140.79;100.00;63287.88;4952219;28;20034;-64
2021/10/13 10:31:42;;;;;;;33.15;23.60;;;;;;;-140.79;100.00;63287.88;4976728;28;20031;-63
2021/10/13 10:34:07;;;;;;;32.88;22.98;;;;;;;-140.79;100.00;63287.88;4960715;28;20034;-61
2021/10/13 10:36:37;;;;;;;34.97;23.17;;;;;;;-140.79;100.00;63287.88;4960460;28;20603;-62
2021/10/13 10:39:25;;;;;;;;;;;;;;;-140.79;100.00;63287.88;4966374;28;20034;-61
2021/10/13 10:41:55;;;;;;;29.33;21.67;;;;;;;-140.79;100.00;63287.88;4977182;28;20009;-62
2021/10/13 10:44:26;;;;;;;31.23;21.45;;;;;;;-140.79;100.00;63287.88;4964795;28;20134;-61
2021/10/13 10:46:57;;;;;;;30.10;22.27;;;;;;;-140.79;100.00;63287.88;4961975;28;20043;-61
2021/10/13 10:49:53;;;;;;;33.15;22.75;;;;;;;-140.79;100.00;63287.88;4964698;28;20532;-61
2021/10/13 10:52:21;;;;;;;30.83;21.55;;;;;;;-140.79;100.00;63287.88;4966661;28;20035;-61
2021/10/13 10:54:51;;;;;;;30.33;21.38;;;;;;;-140.79;100.00;63287.88;4964377;28;20054;-60
2021/10/13 10:57:33;;;;;;;26.90;19.60;;;;;;;-140.79;100.00;63287.88;4957342;28;20061;-61
2021/10/13 10:59:59;;;;;;;28.75;20.02;;;;;;;-140.79;100.00;63287.88;4963675;28;20034;-61
2021/10/13 11:02:24;;;;;;;27.33;20.25;;;;;;;-140.79;100.00;63287.88;4967056;28;20089;-60
2021/10/13 11:05:05;;;;;;;28.05;20.60;;;;;;;-140.79;100.00;63287.88;4980595;28;20109;-60
2021/10/13 11:07:32;;;;;;;26.50;19.48;;;;;;;-140.79;100.00;63287.88;4985010;28;20497;-61
2021/10/13 11:10:02;;;;;;;24.73;18.58;;;;;;;-140.79;100.00;63287.88;4981017;28;20043;-60
2021/10/13 11:12:27;;;;;;;26.45;19.52;;;;;;;-140.79;100.00;63287.88;4985326;28;20038;-63
2021/10/13 11:15:09;;;;;;;26.48;19.13;;;;;;;-140.79;100.00;63287.88;4963083;28;20035;-60
2021/10/13 11:17:35;;;;;;;27.98;19.52;;;;;;;-140.79;100.00;63287.88;4984821;28;20146;-61
2021/10/13 11:20:10;;;;;;;27.73;20.00;;;;;;;-140.79;100.00;63287.88;4982391;28;20049;-61
2021/10/13 11:22:36;;;;;;;24.88;18.15;;;;;;;-140.79;100.00;63287.88;4985259;28;20085;-61
2021/10/13 11:25:17;;;;;;;23.55;18.20;;;;;;;-140.79;100.00;63287.88;4979832;28;20027;-60